sensor_id;sensor_type;location;lat;lon;timestamp;P1;durP1;ratioP1;P2;durP2;ratioP2
4232;SDS011;2130;48.472;11.934;2023-11-22T00:00:47;7.40;;;2.27;;
4232;SDS011;2130;48.472;11.934;2023-11-22T00:03:15;6.83;;;1.40;;
4232;SDS011;2130;48.472;11.934;2023-11-22T00:05:43;6.13;;;1.47;;
4232;SDS011;2130;48.472;11.934;2023-11-22T00:08:13;7.13;;;1.80;;
4232;SDS011;2130;48.472;11.934;2023-11-22T00:10:42;7.83;;;1.53;;
4232;SDS011;2130;48.472;11.934;2023-11-22T00:13:11;6.13;;;1.50;;
4232;SDS011;2130;48.472;11.934;2023-11-22T00:15:40;6.60;;;1.80;;
4232;SDS011;2130;48.472;11.934;2023-11-22T00:18:08;9.27;;;2.00;;
4232;SDS011;2130;48.472;11.934;2023-11-22T00:20:36;7.30;;;1.67;;
4232;SDS011;2130;48.472;11.934;2023-11-22T00:23:04;5.47;;;1.10;;
4232;SDS011;2130;48.472;11.934;2023-11-22T00:25:33;16.13;;;1.60;;
4232;SDS011;2130;48.472;11.934;2023-11-22T00:28:02;6.57;;;1.33;;
4232;SDS011;2130;48.472;11.934;2023-11-22T00:30:32;6.07;;;1.23;;
4232;SDS011;2130;48.472;11.934;2023-11-22T00:33:00;6.30;;;1.20;;
4232;SDS011;2130;48.472;11.934;2023-11-22T00:35:31;6.07;;;1.27;;
4232;SDS011;2130;48.472;11.934;2023-11-22T00:38:00;6.90;;;1.43;;
4232;SDS011;2130;48.472;11.934;2023-11-22T00:40:28;6.27;;;1.20;;
4232;SDS011;2130;48.472;11.934;2023-11-22T00:42:58;6.90;;;1.63;;
4232;SDS011;2130;48.472;11.934;2023-11-22T00:45:27;6.67;;;1.10;;
4232;SDS011;2130;48.472;11.934;2023-11-22T00:47:56;6.83;;;1.17;;
4232;SDS011;2130;48.472;11.934;2023-11-22T00:50:25;7.67;;;1.00;;
4232;SDS011;2130;48.472;11.934;2023-11-22T00:52:53;6.63;;;1.40;;
4232;SDS011;2130;48.472;11.934;2023-11-22T00:55:21;7.30;;;1.30;;
4232;SDS011;2130;48.472;11.934;2023-11-22T00:57:49;7.87;;;1.20;;
4232;SDS011;2130;48.472;11.934;2023-11-22T01:00:18;7.33;;;1.23;;
4232;SDS011;2130;48.472;11.934;2023-11-22T01:02:47;8.00;;;1.20;;
4232;SDS011;2130;48.472;11.934;2023-11-22T01:05:16;6.20;;;1.17;;
4232;SDS011;2130;48.472;11.934;2023-11-22T01:07:44;7.00;;;1.00;;
4232;SDS011;2130;48.472;11.934;2023-11-22T01:10:12;6.43;;;1.17;;
4232;SDS011;2130;48.472;11.934;2023-11-22T01:12:42;6.70;;;1.57;;
4232;SDS011;2130;48.472;11.934;2023-11-22T01:15:10;6.87;;;1.30;;
4232;SDS011;2130;48.472;11.934;2023-11-22T01:17:38;6.90;;;1.10;;
4232;SDS011;2130;48.472;11.934;2023-11-22T01:20:09;8.63;;;1.40;;
4232;SDS011;2130;48.472;11.934;2023-11-22T01:22:38;7.73;;;1.17;;
4232;SDS011;2130;48.472;11.934;2023-11-22T01:25:06;9.00;;;1.70;;
4232;SDS011;2130;48.472;11.934;2023-11-22T01:27:35;8.33;;;1.80;;
4232;SDS011;2130;48.472;11.934;2023-11-22T01:30:04;6.67;;;1.40;;
4232;SDS011;2130;48.472;11.934;2023-11-22T01:32:34;7.63;;;1.37;;
4232;SDS011;2130;48.472;11.934;2023-11-22T01:35:02;7.40;;;1.50;;
4232;SDS011;2130;48.472;11.934;2023-11-22T01:37:33;6.53;;;1.30;;
4232;SDS011;2130;48.472;11.934;2023-11-22T01:40:01;10.17;;;1.53;;
4232;SDS011;2130;48.472;11.934;2023-11-22T01:42:30;8.30;;;1.53;;
4232;SDS011;2130;48.472;11.934;2023-11-22T01:44:59;7.83;;;1.50;;
4232;SDS011;2130;48.472;11.934;2023-11-22T01:47:27;9.90;;;1.60;;
4232;SDS011;2130;48.472;11.934;2023-11-22T01:49:56;6.80;;;1.43;;
4232;SDS011;2130;48.472;11.934;2023-11-22T01:52:25;7.23;;;1.37;;
4232;SDS011;2130;48.472;11.934;2023-11-22T01:54:56;7.20;;;1.70;;
4232;SDS011;2130;48.472;11.934;2023-11-22T01:57:24;9.87;;;1.70;;
4232;SDS011;2130;48.472;11.934;2023-11-22T01:59:52;7.70;;;1.30;;
4232;SDS011;2130;48.472;11.934;2023-11-22T02:02:21;9.70;;;1.80;;
4232;SDS011;2130;48.472;11.934;2023-11-22T02:04:49;8.17;;;1.50;;
4232;SDS011;2130;48.472;11.934;2023-11-22T02:07:17;7.47;;;1.60;;
4232;SDS011;2130;48.472;11.934;2023-11-22T02:09:45;6.93;;;1.20;;
4232;SDS011;2130;48.472;11.934;2023-11-22T02:12:15;8.20;;;1.57;;
4232;SDS011;2130;48.472;11.934;2023-11-22T02:14:43;8.17;;;2.00;;
4232;SDS011;2130;48.472;11.934;2023-11-22T02:17:11;7.07;;;1.40;;
4232;SDS011;2130;48.472;11.934;2023-11-22T02:19:40;8.27;;;1.87;;
4232;SDS011;2130;48.472;11.934;2023-11-22T02:22:11;7.33;;;1.30;;
4232;SDS011;2130;48.472;11.934;2023-11-22T02:24:41;7.93;;;1.60;;
4232;SDS011;2130;48.472;11.934;2023-11-22T02:27:09;6.50;;;1.10;;
4232;SDS011;2130;48.472;11.934;2023-11-22T02:29:37;7.27;;;1.37;;
4232;SDS011;2130;48.472;11.934;2023-11-22T02:32:06;7.23;;;1.60;;
4232;SDS011;2130;48.472;11.934;2023-11-22T02:34:35;7.70;;;1.20;;
4232;SDS011;2130;48.472;11.934;2023-11-22T02:37:05;8.70;;;1.93;;
4232;SDS011;2130;48.472;11.934;2023-11-22T02:42:20;8.10;;;1.20;;
4232;SDS011;2130;48.472;11.934;2023-11-22T02:44:48;7.50;;;1.60;;
4232;SDS011;2130;48.472;11.934;2023-11-22T02:47:15;7.00;;;1.40;;
4232;SDS011;2130;48.472;11.934;2023-11-22T02:49:43;8.30;;;1.63;;
4232;SDS011;2130;48.472;11.934;2023-11-22T02:52:11;7.97;;;1.53;;
4232;SDS011;2130;48.472;11.934;2023-11-22T02:54:42;8.00;;;1.40;;
4232;SDS011;2130;48.472;11.934;2023-11-22T02:57:14;8.80;;;1.77;;
4232;SDS011;2130;48.472;11.934;2023-11-22T02:59:42;7.50;;;1.40;;
4232;SDS011;2130;48.472;11.934;2023-11-22T03:02:11;7.90;;;1.67;;
4232;SDS011;2130;48.472;11.934;2023-11-22T03:04:44;7.13;;;1.33;;
4232;SDS011;2130;48.472;11.934;2023-11-22T03:07:12;7.43;;;1.47;;
4232;SDS011;2130;48.472;11.934;2023-11-22T03:09:40;7.63;;;1.30;;
4232;SDS011;2130;48.472;11.934;2023-11-22T03:12:10;7.90;;;1.50;;
4232;SDS011;2130;48.472;11.934;2023-11-22T03:14:40;7.50;;;1.43;;
4232;SDS011;2130;48.472;11.934;2023-11-22T03:17:10;6.90;;;1.23;;
4232;SDS011;2130;48.472;11.934;2023-11-22T03:19:40;7.83;;;1.60;;
4232;SDS011;2130;48.472;11.934;2023-11-22T03:22:09;8.77;;;2.23;;
4232;SDS011;2130;48.472;11.934;2023-11-22T03:24:37;7.97;;;1.60;;
4232;SDS011;2130;48.472;11.934;2023-11-22T03:27:05;7.50;;;1.50;;
4232;SDS011;2130;48.472;11.934;2023-11-22T03:29:33;8.53;;;1.67;;
4232;SDS011;2130;48.472;11.934;2023-11-22T03:32:03;8.17;;;1.40;;
4232;SDS011;2130;48.472;11.934;2023-11-22T03:34:31;8.07;;;1.43;;
4232;SDS011;2130;48.472;11.934;2023-11-22T03:37:00;9.03;;;1.83;;
4232;SDS011;2130;48.472;11.934;2023-11-22T03:39:28;7.10;;;1.00;;
4232;SDS011;2130;48.472;11.934;2023-11-22T03:41:56;8.50;;;1.70;;
4232;SDS011;2130;48.472;11.934;2023-11-22T03:44:24;7.00;;;1.20;;
4232;SDS011;2130;48.472;11.934;2023-11-22T03:46:53;7.97;;;1.30;;
4232;SDS011;2130;48.472;11.934;2023-11-22T03:49:23;7.60;;;0.97;;
4232;SDS011;2130;48.472;11.934;2023-11-22T03:51:51;8.10;;;1.37;;
4232;SDS011;2130;48.472;11.934;2023-11-22T03:54:19;7.83;;;1.63;;
4232;SDS011;2130;48.472;11.934;2023-11-22T03:56:47;8.67;;;1.50;;
4232;SDS011;2130;48.472;11.934;2023-11-22T03:59:15;7.70;;;1.37;;
4232;SDS011;2130;48.472;11.934;2023-11-22T04:01:43;8.33;;;1.20;;
4232;SDS011;2130;48.472;11.934;2023-11-22T04:04:11;8.50;;;1.37;;
4232;SDS011;2130;48.472;11.934;2023-11-22T04:06:41;7.53;;;1.17;;
4232;SDS011;2130;48.472;11.934;2023-11-22T04:09:09;7.20;;;1.30;;
4232;SDS011;2130;48.472;11.934;2023-11-22T04:11:38;8.73;;;1.50;;
4232;SDS011;2130;48.472;11.934;2023-11-22T04:14:07;7.73;;;1.20;;
4232;SDS011;2130;48.472;11.934;2023-11-22T04:16:36;7.90;;;1.23;;
4232;SDS011;2130;48.472;11.934;2023-11-22T04:19:05;9.13;;;1.33;;
4232;SDS011;2130;48.472;11.934;2023-11-22T04:21:33;8.63;;;1.67;;
4232;SDS011;2130;48.472;11.934;2023-11-22T04:24:03;8.60;;;1.17;;
4232;SDS011;2130;48.472;11.934;2023-11-22T04:26:32;8.67;;;1.23;;
4232;SDS011;2130;48.472;11.934;2023-11-22T04:29:00;7.40;;;1.20;;
4232;SDS011;2130;48.472;11.934;2023-11-22T04:31:29;8.43;;;1.20;;
4232;SDS011;2130;48.472;11.934;2023-11-22T04:33:57;8.70;;;1.37;;
4232;SDS011;2130;48.472;11.934;2023-11-22T04:36:27;7.60;;;1.00;;
4232;SDS011;2130;48.472;11.934;2023-11-22T04:38:56;8.03;;;1.33;;
4232;SDS011;2130;48.472;11.934;2023-11-22T04:41:25;7.60;;;1.30;;
4232;SDS011;2130;48.472;11.934;2023-11-22T04:43:53;8.70;;;1.33;;
4232;SDS011;2130;48.472;11.934;2023-11-22T04:46:21;8.50;;;1.27;;
4232;SDS011;2130;48.472;11.934;2023-11-22T04:48:50;9.30;;;1.50;;
4232;SDS011;2130;48.472;11.934;2023-11-22T04:51:19;7.67;;;1.20;;
4232;SDS011;2130;48.472;11.934;2023-11-22T04:53:47;8.33;;;1.57;;
4232;SDS011;2130;48.472;11.934;2023-11-22T04:56:15;7.97;;;1.40;;
4232;SDS011;2130;48.472;11.934;2023-11-22T04:58:44;8.37;;;1.50;;
4232;SDS011;2130;48.472;11.934;2023-11-22T05:01:12;8.47;;;1.27;;
4232;SDS011;2130;48.472;11.934;2023-11-22T05:03:44;9.33;;;1.50;;
4232;SDS011;2130;48.472;11.934;2023-11-22T05:06:12;8.20;;;1.47;;
4232;SDS011;2130;48.472;11.934;2023-11-22T05:08:40;8.77;;;1.47;;
4232;SDS011;2130;48.472;11.934;2023-11-22T05:11:08;8.93;;;1.53;;
4232;SDS011;2130;48.472;11.934;2023-11-22T05:13:36;8.70;;;1.40;;
4232;SDS011;2130;48.472;11.934;2023-11-22T05:16:06;8.93;;;1.17;;
4232;SDS011;2130;48.472;11.934;2023-11-22T05:18:34;11.23;;;1.63;;
4232;SDS011;2130;48.472;11.934;2023-11-22T05:21:03;12.20;;;1.57;;
4232;SDS011;2130;48.472;11.934;2023-11-22T05:23:31;8.50;;;1.20;;
4232;SDS011;2130;48.472;11.934;2023-11-22T05:26:00;8.47;;;1.50;;
4232;SDS011;2130;48.472;11.934;2023-11-22T05:28:28;9.57;;;1.80;;
4232;SDS011;2130;48.472;11.934;2023-11-22T05:30:56;8.63;;;1.50;;
4232;SDS011;2130;48.472;11.934;2023-11-22T05:33:26;7.97;;;1.50;;
4232;SDS011;2130;48.472;11.934;2023-11-22T05:35:54;8.50;;;1.40;;
4232;SDS011;2130;48.472;11.934;2023-11-22T05:38:22;7.87;;;1.50;;
4232;SDS011;2130;48.472;11.934;2023-11-22T05:40:52;8.93;;;1.40;;
4232;SDS011;2130;48.472;11.934;2023-11-22T05:43:20;9.13;;;1.20;;
4232;SDS011;2130;48.472;11.934;2023-11-22T05:45:52;8.50;;;1.27;;
4232;SDS011;2130;48.472;11.934;2023-11-22T05:48:20;8.20;;;1.50;;
4232;SDS011;2130;48.472;11.934;2023-11-22T05:50:50;9.47;;;1.50;;
4232;SDS011;2130;48.472;11.934;2023-11-22T05:53:18;9.13;;;1.40;;
4232;SDS011;2130;48.472;11.934;2023-11-22T05:55:47;9.40;;;1.70;;
4232;SDS011;2130;48.472;11.934;2023-11-22T05:58:16;8.47;;;1.50;;
4232;SDS011;2130;48.472;11.934;2023-11-22T06:00:44;8.70;;;1.60;;
4232;SDS011;2130;48.472;11.934;2023-11-22T06:03:13;9.50;;;1.70;;
4232;SDS011;2130;48.472;11.934;2023-11-22T06:05:41;12.60;;;2.93;;
4232;SDS011;2130;48.472;11.934;2023-11-22T06:08:11;12.03;;;2.80;;
4232;SDS011;2130;48.472;11.934;2023-11-22T06:10:39;10.63;;;1.90;;
4232;SDS011;2130;48.472;11.934;2023-11-22T06:13:08;8.53;;;1.43;;
4232;SDS011;2130;48.472;11.934;2023-11-22T06:15:38;9.30;;;1.53;;
4232;SDS011;2130;48.472;11.934;2023-11-22T06:18:07;8.90;;;1.47;;
4232;SDS011;2130;48.472;11.934;2023-11-22T06:20:35;9.60;;;1.50;;
4232;SDS011;2130;48.472;11.934;2023-11-22T06:23:03;7.83;;;1.47;;
4232;SDS011;2130;48.472;11.934;2023-11-22T06:25:32;8.70;;;1.80;;
4232;SDS011;2130;48.472;11.934;2023-11-22T06:28:03;8.10;;;1.40;;
4232;SDS011;2130;48.472;11.934;2023-11-22T06:30:31;10.27;;;1.90;;
4232;SDS011;2130;48.472;11.934;2023-11-22T06:32:59;9.10;;;1.60;;
4232;SDS011;2130;48.472;11.934;2023-11-22T06:35:28;9.83;;;2.03;;
4232;SDS011;2130;48.472;11.934;2023-11-22T06:37:56;8.97;;;1.87;;
4232;SDS011;2130;48.472;11.934;2023-11-22T06:40:24;8.67;;;1.80;;
4232;SDS011;2130;48.472;11.934;2023-11-22T06:42:53;9.20;;;1.53;;
4232;SDS011;2130;48.472;11.934;2023-11-22T06:45:21;10.00;;;1.70;;
4232;SDS011;2130;48.472;11.934;2023-11-22T06:47:49;8.53;;;1.57;;
4232;SDS011;2130;48.472;11.934;2023-11-22T06:50:18;9.10;;;1.47;;
4232;SDS011;2130;48.472;11.934;2023-11-22T06:52:56;8.77;;;1.30;;
4232;SDS011;2130;48.472;11.934;2023-11-22T06:55:24;10.00;;;1.50;;
4232;SDS011;2130;48.472;11.934;2023-11-22T06:58:00;9.20;;;1.67;;
4232;SDS011;2130;48.472;11.934;2023-11-22T07:00:28;8.53;;;1.70;;
4232;SDS011;2130;48.472;11.934;2023-11-22T07:02:57;8.00;;;1.50;;
4232;SDS011;2130;48.472;11.934;2023-11-22T07:05:26;8.40;;;1.37;;
4232;SDS011;2130;48.472;11.934;2023-11-22T07:07:55;9.17;;;1.43;;
4232;SDS011;2130;48.472;11.934;2023-11-22T07:10:23;8.63;;;1.33;;
4232;SDS011;2130;48.472;11.934;2023-11-22T07:12:53;8.73;;;1.50;;
4232;SDS011;2130;48.472;11.934;2023-11-22T07:15:24;8.60;;;1.53;;
4232;SDS011;2130;48.472;11.934;2023-11-22T07:17:53;15.20;;;1.40;;
4232;SDS011;2130;48.472;11.934;2023-11-22T07:20:23;9.00;;;1.40;;
4232;SDS011;2130;48.472;11.934;2023-11-22T07:22:53;9.97;;;1.60;;
4232;SDS011;2130;48.472;11.934;2023-11-22T07:25:24;9.83;;;1.87;;
4232;SDS011;2130;48.472;11.934;2023-11-22T07:27:53;13.23;;;1.97;;
4232;SDS011;2130;48.472;11.934;2023-11-22T07:30:30;9.50;;;1.80;;
4232;SDS011;2130;48.472;11.934;2023-11-22T07:33:00;9.00;;;1.37;;
4232;SDS011;2130;48.472;11.934;2023-11-22T07:35:28;8.63;;;1.50;;
4232;SDS011;2130;48.472;11.934;2023-11-22T07:37:59;8.83;;;1.60;;
4232;SDS011;2130;48.472;11.934;2023-11-22T07:40:27;8.40;;;1.67;;
4232;SDS011;2130;48.472;11.934;2023-11-22T07:42:55;8.73;;;1.20;;
4232;SDS011;2130;48.472;11.934;2023-11-22T07:45:24;8.60;;;1.67;;
4232;SDS011;2130;48.472;11.934;2023-11-22T07:47:53;9.23;;;1.70;;
4232;SDS011;2130;48.472;11.934;2023-11-22T07:50:24;8.83;;;1.20;;
4232;SDS011;2130;48.472;11.934;2023-11-22T07:52:53;8.80;;;1.40;;
4232;SDS011;2130;48.472;11.934;2023-11-22T07:55:21;8.57;;;1.63;;
4232;SDS011;2130;48.472;11.934;2023-11-22T07:57:50;7.90;;;1.50;;
4232;SDS011;2130;48.472;11.934;2023-11-22T08:00:19;15.40;;;1.70;;
4232;SDS011;2130;48.472;11.934;2023-11-22T08:02:49;8.07;;;1.47;;
4232;SDS011;2130;48.472;11.934;2023-11-22T08:05:18;8.33;;;1.63;;
4232;SDS011;2130;48.472;11.934;2023-11-22T08:07:50;9.23;;;1.67;;
4232;SDS011;2130;48.472;11.934;2023-11-22T08:10:18;8.93;;;1.50;;
4232;SDS011;2130;48.472;11.934;2023-11-22T08:12:47;9.40;;;1.70;;
4232;SDS011;2130;48.472;11.934;2023-11-22T08:15:17;9.57;;;1.80;;
4232;SDS011;2130;48.472;11.934;2023-11-22T08:17:47;8.70;;;1.67;;
4232;SDS011;2130;48.472;11.934;2023-11-22T08:20:15;14.47;;;1.67;;
4232;SDS011;2130;48.472;11.934;2023-11-22T08:22:47;9.37;;;1.50;;
4232;SDS011;2130;48.472;11.934;2023-11-22T08:25:17;9.67;;;1.73;;
4232;SDS011;2130;48.472;11.934;2023-11-22T08:27:45;10.07;;;1.77;;
4232;SDS011;2130;48.472;11.934;2023-11-22T08:30:14;9.30;;;1.40;;
4232;SDS011;2130;48.472;11.934;2023-11-22T08:32:43;9.80;;;1.40;;
4232;SDS011;2130;48.472;11.934;2023-11-22T08:35:15;10.30;;;1.67;;
4232;SDS011;2130;48.472;11.934;2023-11-22T08:37:43;9.53;;;1.60;;
4232;SDS011;2130;48.472;11.934;2023-11-22T08:40:14;10.63;;;1.53;;
4232;SDS011;2130;48.472;11.934;2023-11-22T08:42:47;11.10;;;2.30;;
4232;SDS011;2130;48.472;11.934;2023-11-22T08:45:15;10.20;;;1.93;;
4232;SDS011;2130;48.472;11.934;2023-11-22T08:47:43;8.87;;;1.60;;
4232;SDS011;2130;48.472;11.934;2023-11-22T08:50:12;8.93;;;1.43;;
4232;SDS011;2130;48.472;11.934;2023-11-22T08:52:42;9.03;;;1.50;;
4232;SDS011;2130;48.472;11.934;2023-11-22T08:55:12;9.40;;;1.37;;
4232;SDS011;2130;48.472;11.934;2023-11-22T08:57:46;8.60;;;1.30;;
4232;SDS011;2130;48.472;11.934;2023-11-22T09:00:14;10.70;;;1.90;;
4232;SDS011;2130;48.472;11.934;2023-11-22T09:02:42;9.03;;;1.53;;
4232;SDS011;2130;48.472;11.934;2023-11-22T09:05:10;8.80;;;1.53;;
4232;SDS011;2130;48.472;11.934;2023-11-22T09:07:40;9.13;;;1.40;;
4232;SDS011;2130;48.472;11.934;2023-11-22T09:10:08;12.80;;;1.50;;
4232;SDS011;2130;48.472;11.934;2023-11-22T09:12:40;11.63;;;1.70;;
4232;SDS011;2130;48.472;11.934;2023-11-22T09:15:12;9.07;;;1.50;;
4232;SDS011;2130;48.472;11.934;2023-11-22T09:17:43;9.50;;;1.90;;
4232;SDS011;2130;48.472;11.934;2023-11-22T09:20:13;10.17;;;1.77;;
4232;SDS011;2130;48.472;11.934;2023-11-22T09:22:42;9.70;;;1.63;;
4232;SDS011;2130;48.472;11.934;2023-11-22T09:25:15;9.40;;;1.60;;
4232;SDS011;2130;48.472;11.934;2023-11-22T09:27:46;10.03;;;1.63;;
4232;SDS011;2130;48.472;11.934;2023-11-22T09:30:18;9.90;;;1.67;;
4232;SDS011;2130;48.472;11.934;2023-11-22T09:33:00;11.53;;;2.27;;
4232;SDS011;2130;48.472;11.934;2023-11-22T09:35:28;11.40;;;1.90;;
4232;SDS011;2130;48.472;11.934;2023-11-22T09:37:58;9.13;;;1.67;;
4232;SDS011;2130;48.472;11.934;2023-11-22T09:40:27;8.97;;;1.50;;
4232;SDS011;2130;48.472;11.934;2023-11-22T09:42:55;10.23;;;1.70;;
4232;SDS011;2130;48.472;11.934;2023-11-22T09:45:26;8.97;;;1.70;;
4232;SDS011;2130;48.472;11.934;2023-11-22T09:47:54;9.30;;;1.83;;
4232;SDS011;2130;48.472;11.934;2023-11-22T09:50:26;9.93;;;1.57;;
4232;SDS011;2130;48.472;11.934;2023-11-22T09:53:00;9.90;;;1.90;;
4232;SDS011;2130;48.472;11.934;2023-11-22T09:55:28;9.00;;;1.60;;
4232;SDS011;2130;48.472;11.934;2023-11-22T09:57:58;8.63;;;1.30;;
4232;SDS011;2130;48.472;11.934;2023-11-22T10:00:28;9.50;;;1.63;;
4232;SDS011;2130;48.472;11.934;2023-11-22T10:02:57;10.00;;;2.13;;
4232;SDS011;2130;48.472;11.934;2023-11-22T10:05:26;8.80;;;1.60;;
4232;SDS011;2130;48.472;11.934;2023-11-22T10:07:57;9.03;;;1.70;;
4232;SDS011;2130;48.472;11.934;2023-11-22T10:10:25;8.50;;;1.57;;
4232;SDS011;2130;48.472;11.934;2023-11-22T10:12:54;9.13;;;1.70;;
4232;SDS011;2130;48.472;11.934;2023-11-22T10:15:23;10.20;;;1.60;;
4232;SDS011;2130;48.472;11.934;2023-11-22T10:17:57;9.33;;;1.90;;
4232;SDS011;2130;48.472;11.934;2023-11-22T10:20:36;8.10;;;1.43;;
4232;SDS011;2130;48.472;11.934;2023-11-22T10:23:07;9.67;;;1.60;;
4232;SDS011;2130;48.472;11.934;2023-11-22T10:25:36;10.80;;;1.40;;
4232;SDS011;2130;48.472;11.934;2023-11-22T10:28:06;8.63;;;1.63;;
4232;SDS011;2130;48.472;11.934;2023-11-22T10:30:36;9.20;;;2.10;;
4232;SDS011;2130;48.472;11.934;2023-11-22T10:33:04;9.63;;;1.93;;
4232;SDS011;2130;48.472;11.934;2023-11-22T10:35:33;8.63;;;1.60;;
4232;SDS011;2130;48.472;11.934;2023-11-22T10:38:01;9.03;;;1.40;;
4232;SDS011;2130;48.472;11.934;2023-11-22T10:40:33;12.17;;;2.40;;
4232;SDS011;2130;48.472;11.934;2023-11-22T10:43:01;13.03;;;3.23;;
4232;SDS011;2130;48.472;11.934;2023-11-22T10:45:30;14.00;;;3.53;;
4232;SDS011;2130;48.472;11.934;2023-11-22T10:47:59;10.70;;;1.90;;
4232;SDS011;2130;48.472;11.934;2023-11-22T10:50:28;9.00;;;1.60;;
4232;SDS011;2130;48.472;11.934;2023-11-22T10:52:57;8.80;;;1.90;;
4232;SDS011;2130;48.472;11.934;2023-11-22T10:55:27;8.43;;;1.70;;
4232;SDS011;2130;48.472;11.934;2023-11-22T10:58:01;9.20;;;1.57;;
4232;SDS011;2130;48.472;11.934;2023-11-22T11:00:31;8.27;;;1.40;;
4232;SDS011;2130;48.472;11.934;2023-11-22T11:03:08;8.73;;;1.30;;
4232;SDS011;2130;48.472;11.934;2023-11-22T11:05:41;10.53;;;1.63;;
4232;SDS011;2130;48.472;11.934;2023-11-22T11:08:11;9.60;;;1.50;;
4232;SDS011;2130;48.472;11.934;2023-11-22T11:10:39;9.10;;;1.97;;
4232;SDS011;2130;48.472;11.934;2023-11-22T11:13:08;10.67;;;2.17;;
4232;SDS011;2130;48.472;11.934;2023-11-22T11:15:37;8.60;;;1.30;;
4232;SDS011;2130;48.472;11.934;2023-11-22T11:18:08;8.53;;;1.90;;
4232;SDS011;2130;48.472;11.934;2023-11-22T11:20:44;8.40;;;1.43;;
4232;SDS011;2130;48.472;11.934;2023-11-22T11:23:14;8.20;;;1.50;;
4232;SDS011;2130;48.472;11.934;2023-11-22T11:25:42;9.07;;;1.50;;
4232;SDS011;2130;48.472;11.934;2023-11-22T11:28:11;8.80;;;1.77;;
4232;SDS011;2130;48.472;11.934;2023-11-22T11:30:45;9.83;;;1.40;;
4232;SDS011;2130;48.472;11.934;2023-11-22T11:33:17;12.03;;;2.07;;
4232;SDS011;2130;48.472;11.934;2023-11-22T11:35:47;9.33;;;1.40;;
4232;SDS011;2130;48.472;11.934;2023-11-22T11:38:18;8.50;;;1.60;;
4232;SDS011;2130;48.472;11.934;2023-11-22T11:40:48;8.20;;;1.37;;
4232;SDS011;2130;48.472;11.934;2023-11-22T11:43:20;8.37;;;1.60;;
4232;SDS011;2130;48.472;11.934;2023-11-22T11:45:48;9.40;;;1.80;;
4232;SDS011;2130;48.472;11.934;2023-11-22T11:48:18;7.90;;;1.40;;
4232;SDS011;2130;48.472;11.934;2023-11-22T11:50:47;8.40;;;1.30;;
4232;SDS011;2130;48.472;11.934;2023-11-22T11:53:18;8.20;;;1.57;;
4232;SDS011;2130;48.472;11.934;2023-11-22T11:55:47;15.13;;;2.00;;
4232;SDS011;2130;48.472;11.934;2023-11-22T11:58:18;8.13;;;1.60;;
4232;SDS011;2130;48.472;11.934;2023-11-22T12:00:46;8.07;;;1.47;;
4232;SDS011;2130;48.472;11.934;2023-11-22T12:03:14;8.37;;;1.63;;
4232;SDS011;2130;48.472;11.934;2023-11-22T12:05:49;16.80;;;2.40;;
4232;SDS011;2130;48.472;11.934;2023-11-22T12:08:17;9.27;;;1.53;;
4232;SDS011;2130;48.472;11.934;2023-11-22T12:10:46;9.37;;;1.70;;
4232;SDS011;2130;48.472;11.934;2023-11-22T12:13:16;8.70;;;1.80;;
4232;SDS011;2130;48.472;11.934;2023-11-22T12:15:46;8.37;;;1.47;;
4232;SDS011;2130;48.472;11.934;2023-11-22T12:18:14;9.90;;;1.73;;
4232;SDS011;2130;48.472;11.934;2023-11-22T12:20:44;8.83;;;1.63;;
4232;SDS011;2130;48.472;11.934;2023-11-22T12:23:23;8.67;;;1.57;;
4232;SDS011;2130;48.472;11.934;2023-11-22T12:25:57;9.93;;;2.10;;
4232;SDS011;2130;48.472;11.934;2023-11-22T12:28:29;9.23;;;1.67;;
4232;SDS011;2130;48.472;11.934;2023-11-22T12:31:06;8.43;;;1.30;;
4232;SDS011;2130;48.472;11.934;2023-11-22T12:33:36;9.73;;;1.47;;
4232;SDS011;2130;48.472;11.934;2023-11-22T12:36:08;8.83;;;1.80;;
4232;SDS011;2130;48.472;11.934;2023-11-22T12:38:37;8.50;;;1.50;;
4232;SDS011;2130;48.472;11.934;2023-11-22T12:41:05;8.97;;;1.60;;
4232;SDS011;2130;48.472;11.934;2023-11-22T12:43:33;9.40;;;1.60;;
4232;SDS011;2130;48.472;11.934;2023-11-22T12:46:13;9.47;;;1.60;;
4232;SDS011;2130;48.472;11.934;2023-11-22T12:48:43;11.30;;;1.73;;
4232;SDS011;2130;48.472;11.934;2023-11-22T12:51:16;8.30;;;1.30;;
4232;SDS011;2130;48.472;11.934;2023-11-22T12:53:45;8.67;;;1.30;;
4232;SDS011;2130;48.472;11.934;2023-11-22T12:56:13;9.27;;;1.50;;
4232;SDS011;2130;48.472;11.934;2023-11-22T12:58:41;8.93;;;1.70;;
4232;SDS011;2130;48.472;11.934;2023-11-22T13:01:09;8.73;;;1.63;;
4232;SDS011;2130;48.472;11.934;2023-11-22T13:03:38;9.40;;;2.00;;
4232;SDS011;2130;48.472;11.934;2023-11-22T13:06:06;9.20;;;1.90;;
4232;SDS011;2130;48.472;11.934;2023-11-22T13:08:36;9.70;;;2.03;;
4232;SDS011;2130;48.472;11.934;2023-11-22T13:11:04;11.60;;;2.10;;
4232;SDS011;2130;48.472;11.934;2023-11-22T13:13:34;9.43;;;2.27;;
4232;SDS011;2130;48.472;11.934;2023-11-22T13:16:03;8.50;;;1.87;;
4232;SDS011;2130;48.472;11.934;2023-11-22T13:18:32;9.50;;;1.87;;
4232;SDS011;2130;48.472;11.934;2023-11-22T13:21:00;11.07;;;2.00;;
4232;SDS011;2130;48.472;11.934;2023-11-22T13:23:29;9.50;;;2.13;;
4232;SDS011;2130;48.472;11.934;2023-11-22T13:25:59;10.40;;;2.53;;
4232;SDS011;2130;48.472;11.934;2023-11-22T13:28:28;12.10;;;2.60;;
4232;SDS011;2130;48.472;11.934;2023-11-22T13:30:56;9.03;;;2.07;;
4232;SDS011;2130;48.472;11.934;2023-11-22T13:33:24;9.43;;;1.90;;
4232;SDS011;2130;48.472;11.934;2023-11-22T13:35:54;10.20;;;2.40;;
4232;SDS011;2130;48.472;11.934;2023-11-22T13:38:22;10.20;;;2.27;;
4232;SDS011;2130;48.472;11.934;2023-11-22T13:40:51;9.50;;;1.60;;
4232;SDS011;2130;48.472;11.934;2023-11-22T13:43:20;9.53;;;2.20;;
4232;SDS011;2130;48.472;11.934;2023-11-22T13:45:48;9.90;;;1.40;;
4232;SDS011;2130;48.472;11.934;2023-11-22T13:48:17;10.17;;;1.73;;
4232;SDS011;2130;48.472;11.934;2023-11-22T13:50:45;10.53;;;2.43;;
4232;SDS011;2130;48.472;11.934;2023-11-22T13:53:13;9.53;;;1.97;;
4232;SDS011;2130;48.472;11.934;2023-11-22T13:55:43;12.27;;;2.00;;
4232;SDS011;2130;48.472;11.934;2023-11-22T13:58:11;10.93;;;2.50;;
4232;SDS011;2130;48.472;11.934;2023-11-22T14:00:41;10.17;;;1.90;;
4232;SDS011;2130;48.472;11.934;2023-11-22T14:03:10;9.23;;;2.00;;
4232;SDS011;2130;48.472;11.934;2023-11-22T14:05:38;12.07;;;2.37;;
4232;SDS011;2130;48.472;11.934;2023-11-22T14:08:06;13.23;;;2.70;;
4232;SDS011;2130;48.472;11.934;2023-11-22T14:10:38;14.00;;;2.03;;
4232;SDS011;2130;48.472;11.934;2023-11-22T14:13:06;9.90;;;1.93;;
4232;SDS011;2130;48.472;11.934;2023-11-22T14:15:35;11.00;;;2.40;;
4232;SDS011;2130;48.472;11.934;2023-11-22T14:18:05;10.30;;;2.17;;
4232;SDS011;2130;48.472;11.934;2023-11-22T14:20:35;11.40;;;2.67;;
4232;SDS011;2130;48.472;11.934;2023-11-22T14:23:03;11.90;;;2.90;;
4232;SDS011;2130;48.472;11.934;2023-11-22T14:25:34;10.20;;;2.27;;
4232;SDS011;2130;48.472;11.934;2023-11-22T14:28:03;10.57;;;1.93;;
4232;SDS011;2130;48.472;11.934;2023-11-22T14:30:31;10.40;;;2.63;;
4232;SDS011;2130;48.472;11.934;2023-11-22T14:33:02;13.73;;;2.50;;
4232;SDS011;2130;48.472;11.934;2023-11-22T14:35:35;10.33;;;2.60;;
4232;SDS011;2130;48.472;11.934;2023-11-22T14:38:04;10.33;;;2.23;;
4232;SDS011;2130;48.472;11.934;2023-11-22T14:40:33;10.90;;;2.50;;
4232;SDS011;2130;48.472;11.934;2023-11-22T14:43:04;10.90;;;2.67;;
4232;SDS011;2130;48.472;11.934;2023-11-22T14:45:32;10.17;;;2.67;;
4232;SDS011;2130;48.472;11.934;2023-11-22T14:48:00;9.97;;;2.70;;
4232;SDS011;2130;48.472;11.934;2023-11-22T14:50:29;11.77;;;2.53;;
4232;SDS011;2130;48.472;11.934;2023-11-22T14:52:59;10.40;;;2.67;;
4232;SDS011;2130;48.472;11.934;2023-11-22T14:55:30;12.07;;;2.70;;
4232;SDS011;2130;48.472;11.934;2023-11-22T14:57:59;10.87;;;2.53;;
4232;SDS011;2130;48.472;11.934;2023-11-22T15:00:27;11.30;;;2.50;;
4232;SDS011;2130;48.472;11.934;2023-11-22T15:02:55;11.40;;;2.83;;
4232;SDS011;2130;48.472;11.934;2023-11-22T15:05:24;11.37;;;2.53;;
4232;SDS011;2130;48.472;11.934;2023-11-22T15:07:53;12.73;;;2.60;;
4232;SDS011;2130;48.472;11.934;2023-11-22T15:10:24;11.10;;;2.67;;
4232;SDS011;2130;48.472;11.934;2023-11-22T15:12:52;12.20;;;2.60;;